createdAt,value
2022-08-26T00:04:10.798Z,0
2022-08-26T00:09:12.361Z,0
2022-08-26T00:14:08.258Z,0
2022-08-26T00:19:08.957Z,0
2022-08-26T00:24:07.286Z,0
2022-08-26T00:29:05.715Z,0
2022-08-26T00:34:03.740Z,0
2022-08-26T00:39:04.285Z,0
2022-08-26T00:44:04.466Z,0
2022-08-26T00:49:02.705Z,0
2022-08-26T00:54:04.203Z,0
2022-08-26T00:58:49.399Z,0
2022-08-26T01:03:47.349Z,0
2022-08-26T01:08:46.083Z,0
2022-08-26T01:13:46.088Z,0
2022-08-26T01:18:45.096Z,0
2022-08-26T01:23:47.369Z,0
2022-08-26T01:28:52.529Z,0
2022-08-26T01:33:45.963Z,0
2022-08-26T01:38:43.089Z,0
2022-08-26T01:43:40.683Z,0
2022-08-26T01:48:41.073Z,0
2022-08-26T01:53:38.194Z,0
2022-08-26T01:58:37.212Z,0
2022-08-26T01:59:57.997Z,0
2022-08-26T02:04:58.424Z,0
2022-08-26T02:09:57.606Z,0
2022-08-26T02:14:57.185Z,0
2022-08-26T02:19:57.560Z,0
2022-08-26T02:24:55.221Z,0
2022-08-26T02:29:55.401Z,0
2022-08-26T02:34:52.493Z,0
2022-08-26T02:39:53.506Z,0
2022-08-26T02:44:50.802Z,0
2022-08-26T02:49:52.178Z,0
2022-08-26T02:54:52.647Z,0
2022-08-26T02:59:28.767Z,0
2022-08-26T03:04:26.886Z,0
2022-08-26T03:09:23.900Z,0
2022-08-26T03:14:18.824Z,0
2022-08-26T03:19:21.281Z,0
2022-08-26T03:24:18.352Z,0
2022-08-26T03:29:17.988Z,0
2022-08-26T03:34:16.585Z,0
2022-08-26T03:39:15.935Z,0
2022-08-26T03:44:19.753Z,0
2022-08-26T03:49:07.670Z,0
2022-08-26T03:54:10.992Z,0
2022-08-26T03:58:54.045Z,0
2022-08-26T04:03:53.331Z,0
2022-08-26T04:08:52.176Z,0
2022-08-26T04:13:54.012Z,0
2022-08-26T04:18:51.376Z,0
2022-08-26T04:23:51.199Z,0
2022-08-26T04:28:51.139Z,0
2022-08-26T04:33:52.372Z,0
2022-08-26T04:38:49.072Z,0
2022-08-26T04:43:48.531Z,0
2022-08-26T04:48:47.937Z,0
2022-08-26T04:53:47.340Z,0
2022-08-26T04:58:44.630Z,0.01
2022-08-26T05:03:44.290Z,0.01
2022-08-26T05:08:44.397Z,0.01
2022-08-26T05:13:42.514Z,0.01
2022-08-26T05:18:44.023Z,0.02
2022-08-26T05:23:42.459Z,0.02
2022-08-26T05:28:44.003Z,0.02
2022-08-26T05:33:44.768Z,0.03
2022-08-26T05:38:40.322Z,0.03
2022-08-26T05:43:38.545Z,0.04
2022-08-26T05:48:36.662Z,0.04
2022-08-26T05:53:39.817Z,0.05
2022-08-26T05:58:37.103Z,0.05
2022-08-26T05:59:59.869Z,0.05
2022-08-26T06:04:58.360Z,0.05
2022-08-26T06:10:34.689Z,0.06
2022-08-26T06:14:56.704Z,0.06
2022-08-26T06:19:54.458Z,0.06
2022-08-26T06:24:54.336Z,0.07
2022-08-26T06:29:53.827Z,0.07
2022-08-26T06:34:52.453Z,0.07
2022-08-26T06:39:55.656Z,0.08
2022-08-26T06:44:52.221Z,0.09
2022-08-26T06:49:54.115Z,0.1
2022-08-26T06:54:54.253Z,0.11
2022-08-26T06:58:59.257Z,0.12
2022-08-26T07:04:01.194Z,0.13
2022-08-26T07:09:00.905Z,0.13
2022-08-26T07:13:56.068Z,0.14
2022-08-26T07:18:56.181Z,0.16
2022-08-26T07:24:04.990Z,0.17
2022-08-26T07:28:56.217Z,0.18
2022-08-26T07:33:55.740Z,0.23
2022-08-26T07:38:54.445Z,0.26
2022-08-26T07:43:54.275Z,0.28
2022-08-26T07:48:53.600Z,0.27
2022-08-26T07:53:55.723Z,0.29
2022-08-26T07:58:54.673Z,0.21
2022-08-26T08:03:53.957Z,0.2
2022-08-26T08:08:54.023Z,0.28
2022-08-26T08:13:57.650Z,0.24
2022-08-26T08:18:51.419Z,0.21
2022-08-26T08:23:49.806Z,0.32
2022-08-26T08:28:50.161Z,0.21
2022-08-26T08:33:46.648Z,0.22
2022-08-26T08:38:47.304Z,0.23
2022-08-26T08:43:43.930Z,0.41
2022-08-26T08:48:45.206Z,0.44
2022-08-26T08:53:45.927Z,0.31
2022-08-26T08:58:45.029Z,0.46
2022-08-26T09:03:43.634Z,0.43
2022-08-26T09:08:45.163Z,0.39
2022-08-26T09:13:50.427Z,0.3
2022-08-26T09:18:39.362Z,0.55
2022-08-26T09:23:43.552Z,0.37
2022-08-26T09:28:40.505Z,0.47
2022-08-26T09:33:37.992Z,0.4
2022-08-26T09:38:40.213Z,0.59
2022-08-26T09:43:36.864Z,0.48
2022-08-26T09:48:42.484Z,0.61
2022-08-26T09:53:36.073Z,0.49
2022-08-26T09:58:38.537Z,0.52
2022-08-26T09:59:56.205Z,0.52
2022-08-26T10:04:55.079Z,0.65
2022-08-26T10:09:56.766Z,0.65
2022-08-26T10:14:54.909Z,0.64
2022-08-26T10:20:01.240Z,0.65
2022-08-26T10:24:57.873Z,0.67
2022-08-26T10:29:55.061Z,0.68
2022-08-26T10:34:56.076Z,0.69
2022-08-26T10:40:00.296Z,0.69
2022-08-26T10:44:51.413Z,0.7
2022-08-26T10:49:48.945Z,0.73
2022-08-26T10:54:47.855Z,0.73
2022-08-26T10:59:16.605Z,0.74
2022-08-26T11:04:27.225Z,0.75
2022-08-26T11:09:33.610Z,0.75
2022-08-26T11:14:59.991Z,0.75
2022-08-26T11:20:02.717Z,0.75
2022-08-26T11:24:21.112Z,0.76
2022-08-26T11:29:22.893Z,0.74
2022-08-26T11:34:22.197Z,0.74
2022-08-26T11:39:19.290Z,0.59
2022-08-26T11:44:19.992Z,0.48
2022-08-26T11:49:17.957Z,0.53
2022-08-26T11:54:08.311Z,0.72
2022-08-26T11:58:58.895Z,0.76
2022-08-26T12:03:59.925Z,0.75
2022-08-26T12:08:55.557Z,0.65
2022-08-26T12:13:54.928Z,0.65
2022-08-26T12:18:54.925Z,0.44
2022-08-26T12:23:55.592Z,0.63
2022-08-26T12:28:52.743Z,0.53
2022-08-26T12:33:51.877Z,0.39
2022-08-26T12:38:49.549Z,0.4
2022-08-26T12:43:48.569Z,0.65
2022-08-26T12:48:48.120Z,0.69
2022-08-26T12:53:47.510Z,0.69
2022-08-26T12:58:47.985Z,0.68
2022-08-26T13:03:47.233Z,0.64
2022-08-26T13:08:46.375Z,0.63
2022-08-26T13:13:46.406Z,0.61
2022-08-26T13:18:44.013Z,0.6
2022-08-26T13:23:45.635Z,0.58
2022-08-26T13:28:43.355Z,0.54
2022-08-26T13:33:43.654Z,0.25
2022-08-26T13:38:48.996Z,0.22
2022-08-26T13:43:41.516Z,0.22
2022-08-26T13:48:47.081Z,0.28
2022-08-26T13:53:42.891Z,0.27
2022-08-26T13:58:37.152Z,0.34
2022-08-26T14:03:36.330Z,0.34
2022-08-26T14:08:35.718Z,0.27
2022-08-26T14:13:35.271Z,0.3
2022-08-26T14:18:44.373Z,0.34
2022-08-26T14:23:34.478Z,0.36
2022-08-26T14:28:33.600Z,0.38
2022-08-26T14:33:33.353Z,0.36
2022-08-26T14:38:31.541Z,0.35
2022-08-26T14:43:30.160Z,0.33
2022-08-26T14:48:29.381Z,0.33
2022-08-26T14:53:28.774Z,0.31
2022-08-26T14:58:37.123Z,0.32
2022-08-26T14:59:53.063Z,0.29
2022-08-26T15:04:50.146Z,0.22
2022-08-26T15:09:48.668Z,0.18
2022-08-26T15:14:48.388Z,0.16
2022-08-26T15:19:46.238Z,0.15
2022-08-26T15:24:45.506Z,0.14
2022-08-26T15:29:44.149Z,0.13
2022-08-26T15:34:44.072Z,0.12
2022-08-26T15:39:42.998Z,0.12
2022-08-26T15:44:42.210Z,0.12
2022-08-26T15:49:41.760Z,0.12
2022-08-26T15:54:43.483Z,0.11
2022-08-26T15:59:22.038Z,0.1
2022-08-26T16:04:19.493Z,0.09
2022-08-26T16:09:18.511Z,0.06
2022-08-26T16:14:18.745Z,0.04
2022-08-26T16:19:17.590Z,0.03
2022-08-26T16:24:16.902Z,0.05
2022-08-26T16:29:16.194Z,0.04
2022-08-26T16:34:07.708Z,0.04
2022-08-26T16:39:07.335Z,0.02
2022-08-26T16:44:05.927Z,0.01
2022-08-26T16:49:05.956Z,0
2022-08-26T16:54:08.100Z,0
2022-08-26T16:58:53.363Z,0
2022-08-26T17:03:52.833Z,0
2022-08-26T17:08:52.702Z,0
2022-08-26T17:13:51.476Z,0
2022-08-26T17:18:49.650Z,0
2022-08-26T17:23:48.446Z,0
2022-08-26T17:28:48.714Z,0
2022-08-26T17:33:55.578Z,0
2022-08-26T17:38:54.910Z,0
2022-08-26T17:43:45.845Z,0
2022-08-26T17:48:45.912Z,0
2022-08-26T17:53:44.770Z,0
2022-08-26T17:58:55.193Z,0
2022-08-26T18:03:42.427Z,0
2022-08-26T18:08:40.884Z,0
2022-08-26T18:13:48.725Z,0
2022-08-26T18:18:39.546Z,0
2022-08-26T18:23:39.751Z,0
2022-08-26T18:28:39.543Z,0
2022-08-26T18:33:38.276Z,0
2022-08-26T18:38:43.497Z,0
2022-08-26T18:43:37.559Z,0
2022-08-26T18:48:34.541Z,0
2022-08-26T18:53:35.722Z,0
2022-08-26T18:58:32.340Z,0
2022-08-26T19:03:32.956Z,0
2022-08-26T19:08:33.101Z,0
2022-08-26T19:13:31.919Z,0
2022-08-26T19:18:30.558Z,0
2022-08-26T19:23:36.671Z,0
2022-08-26T19:28:28.281Z,0
2022-08-26T19:33:27.984Z,0
2022-08-26T19:38:30.662Z,0
2022-08-26T19:43:27.249Z,0
2022-08-26T19:48:25.487Z,0
2022-08-26T19:53:25.940Z,0
2022-08-26T19:58:25.162Z,0
2022-08-26T20:03:22.563Z,0
2022-08-26T20:08:26.249Z,0
2022-08-26T20:13:20.825Z,0
2022-08-26T20:18:20.061Z,0
2022-08-26T20:23:18.677Z,0
2022-08-26T20:28:18.339Z,0
2022-08-26T20:33:17.437Z,0
2022-08-26T20:38:23.919Z,0
2022-08-26T20:43:17.886Z,0
2022-08-26T20:48:15.674Z,0
2022-08-26T20:53:28.365Z,0
2022-08-26T20:58:03.969Z,0
2022-08-26T21:03:02.138Z,0
2022-08-26T21:08:01.953Z,0
2022-08-26T21:13:00.793Z,0
2022-08-26T21:18:01.736Z,0
2022-08-26T21:23:00.654Z,0
2022-08-26T21:28:00.036Z,0
2022-08-26T21:32:59.525Z,0
2022-08-26T21:37:57.111Z,0
2022-08-26T21:42:56.867Z,0
2022-08-26T21:47:55.782Z,0
2022-08-26T21:52:54.795Z,0
2022-08-26T21:57:42.423Z,0
2022-08-26T22:02:44.434Z,0
2022-08-26T22:07:41.945Z,0
2022-08-26T22:12:41.783Z,0
2022-08-26T22:17:41.555Z,0
2022-08-26T22:22:38.451Z,0
2022-08-26T22:27:45.856Z,0
2022-08-26T22:32:36.195Z,0
2022-08-26T22:37:35.863Z,0
2022-08-26T22:42:35.421Z,0
2022-08-26T22:47:38.847Z,0
2022-08-26T22:52:33.525Z,0
2022-08-26T22:57:32.976Z,0
2022-08-26T22:59:53.998Z,0
2022-08-26T23:04:53.734Z,0
2022-08-26T23:09:52.814Z,0
2022-08-26T23:14:53.053Z,0
2022-08-26T23:19:52.514Z,0
2022-08-26T23:24:51.358Z,0
2022-08-26T23:29:50.225Z,0
2022-08-26T23:34:51.996Z,0
2022-08-26T23:39:47.547Z,0
2022-08-26T23:44:47.424Z,0
2022-08-26T23:49:46.118Z,0
2022-08-26T23:54:44.896Z,0
2022-08-26T23:59:17.032Z,0
